createdAt,value
2023-04-23T00:00:24.625Z,525.00
2023-04-23T00:01:12.508Z,525.00
2023-04-23T00:02:25.895Z,527.00
2023-04-23T00:03:23.556Z,526.00
2023-04-23T00:04:12.613Z,527.00
2023-04-23T00:05:24.522Z,528.00
2023-04-23T00:06:12.458Z,529.00
2023-04-23T00:07:24.501Z,527.00
2023-04-23T00:08:12.472Z,526.00
2023-04-23T00:09:26.995Z,529.00
2023-04-23T00:10:12.604Z,530.00
2023-04-23T00:11:12.622Z,528.00
2023-04-23T00:12:13.037Z,528.00
2023-04-23T00:14:40.591Z,532.00
2023-04-23T00:15:31.613Z,526.00
2023-04-23T00:16:43.732Z,526.00
2023-04-23T00:17:40.409Z,526.00
2023-04-23T00:18:40.262Z,526.00
2023-04-23T00:19:44.614Z,526.00
2023-04-23T00:20:31.584Z,528.00
2023-04-23T00:21:31.621Z,529.00
2023-04-23T00:22:31.596Z,528.00
2023-04-23T00:23:31.581Z,528.00
2023-04-23T00:24:31.541Z,526.00
2023-04-23T00:25:31.525Z,528.00
2023-04-23T00:26:31.557Z,529.00
2023-04-23T00:27:31.535Z,528.00
2023-04-23T00:28:31.530Z,529.00
2023-04-23T00:29:31.530Z,530.00
2023-04-23T00:30:31.498Z,531.00
2023-04-23T00:31:31.549Z,530.00
2023-04-23T00:32:31.497Z,528.00
2023-04-23T00:33:31.521Z,528.00
2023-04-23T00:34:31.492Z,527.00
2023-04-23T00:35:31.480Z,526.00
2023-04-23T00:36:31.474Z,529.00
2023-04-23T00:37:31.463Z,533.00
2023-04-23T00:38:31.556Z,534.00
2023-04-23T00:39:31.515Z,531.00
2023-04-23T00:40:31.561Z,528.00
2023-04-23T00:41:31.625Z,530.00
2023-04-23T00:42:31.712Z,531.00
2023-04-23T00:43:31.732Z,531.00
2023-04-23T00:44:31.759Z,530.00
2023-04-23T00:45:31.934Z,528.00
2023-04-23T00:46:31.858Z,528.00
2023-04-23T00:47:31.967Z,529.00
2023-04-23T00:48:31.998Z,526.00
2023-04-23T00:49:31.991Z,528.00
2023-04-23T00:50:32.050Z,527.00
2023-04-23T00:51:32.080Z,528.00
2023-04-23T00:52:32.107Z,527.00
2023-04-23T00:53:32.186Z,527.00
2023-04-23T00:54:32.195Z,525.00
2023-04-23T00:55:32.248Z,526.00
2023-04-23T00:56:32.271Z,528.00
2023-04-23T00:57:32.310Z,526.00
2023-04-23T00:58:32.325Z,526.00
2023-04-23T00:59:32.396Z,526.00
2023-04-23T01:00:32.587Z,530.00
2023-04-23T01:01:32.495Z,533.00
2023-04-23T01:02:32.592Z,532.00
2023-04-23T01:03:32.755Z,533.00
2023-04-23T01:04:32.551Z,536.00
2023-04-23T01:05:32.650Z,539.00
2023-04-23T01:06:32.690Z,541.00
2023-04-23T01:07:32.668Z,540.00
2023-04-23T01:08:32.749Z,538.00
2023-04-23T01:09:32.759Z,539.00
2023-04-23T01:10:32.776Z,538.00
2023-04-23T01:11:32.867Z,538.00
2023-04-23T01:12:32.875Z,537.00
2023-04-23T01:13:32.944Z,538.00
2023-04-23T01:14:32.942Z,538.00
2023-04-23T01:15:32.993Z,533.00
2023-04-23T01:16:33.030Z,533.00
2023-04-23T01:17:33.071Z,536.00
2023-04-23T01:18:33.173Z,538.00
2023-04-23T01:19:33.157Z,535.00
2023-04-23T01:20:33.183Z,535.00
2023-04-23T01:21:33.202Z,534.00
2023-04-23T01:22:33.167Z,532.00
2023-04-23T01:23:33.212Z,530.00
2023-04-23T01:24:33.154Z,531.00
2023-04-23T01:25:33.177Z,532.00
2023-04-23T01:26:33.157Z,532.00
2023-04-23T01:27:33.210Z,533.00
2023-04-23T01:28:33.139Z,532.00
2023-04-23T01:29:33.109Z,531.00
2023-04-23T01:30:33.260Z,531.00
2023-04-23T01:31:33.130Z,530.00
2023-04-23T01:32:33.140Z,531.00
2023-04-23T01:33:33.101Z,533.00
2023-04-23T01:34:33.082Z,533.00
2023-04-23T01:35:33.103Z,535.00
2023-04-23T01:36:33.094Z,533.00
2023-04-23T01:37:33.159Z,531.00
2023-04-23T01:38:33.058Z,530.00
2023-04-23T01:39:33.098Z,533.00
2023-04-23T01:40:33.138Z,529.00
2023-04-23T01:41:33.177Z,531.00
2023-04-23T01:42:33.181Z,527.00
2023-04-23T01:43:33.298Z,527.00
2023-04-23T01:44:33.280Z,529.00
2023-04-23T01:45:33.364Z,529.00
2023-04-23T01:46:33.390Z,528.00
2023-04-23T01:47:33.483Z,528.00
2023-04-23T01:48:33.470Z,527.00
2023-04-23T01:49:33.452Z,526.00
2023-04-23T01:50:33.499Z,524.00
2023-04-23T01:51:33.501Z,526.00
2023-04-23T01:52:33.733Z,526.00
2023-04-23T01:53:33.515Z,529.00
2023-04-23T01:54:33.478Z,531.00
2023-04-23T01:55:33.471Z,528.00
2023-04-23T01:56:33.444Z,525.00
2023-04-23T01:57:33.513Z,526.00
2023-04-23T01:58:33.462Z,526.00
2023-04-23T01:59:33.432Z,529.00
2023-04-23T02:00:33.413Z,529.00
2023-04-23T02:01:33.437Z,528.00
2023-04-23T02:02:33.487Z,529.00
2023-04-23T02:03:33.708Z,526.00
2023-04-23T02:04:33.505Z,526.00
2023-04-23T02:05:33.430Z,528.00
2023-04-23T02:06:33.389Z,530.00
2023-04-23T02:07:33.485Z,530.00
2023-04-23T02:08:33.364Z,531.00
2023-04-23T02:09:33.416Z,529.00
2023-04-23T02:10:33.369Z,528.00
2023-04-23T02:11:33.392Z,530.00
2023-04-23T02:12:33.441Z,527.00
2023-04-23T02:13:33.522Z,530.00
2023-04-23T02:14:33.544Z,528.00
2023-04-23T02:15:33.619Z,527.00
2023-04-23T02:16:33.863Z,528.00
2023-04-23T02:17:33.793Z,527.00
2023-04-23T02:18:33.696Z,525.00
2023-04-23T02:19:33.694Z,523.00
2023-04-23T02:20:33.701Z,523.00
2023-04-23T02:21:33.682Z,523.00
2023-04-23T02:22:33.722Z,523.00
2023-04-23T02:23:33.671Z,524.00
2023-04-23T02:24:33.645Z,526.00
2023-04-23T02:25:33.638Z,530.00
2023-04-23T02:26:33.690Z,530.00
2023-04-23T02:27:33.664Z,530.00
2023-04-23T02:28:33.616Z,528.00
2023-04-23T02:29:33.651Z,529.00
2023-04-23T02:30:33.714Z,528.00
2023-04-23T02:31:33.770Z,527.00
2023-04-23T02:32:33.906Z,524.00
2023-04-23T02:33:33.878Z,527.00
2023-04-23T02:34:33.905Z,530.00
2023-04-23T02:35:33.926Z,528.00
2023-04-23T02:36:34.003Z,528.00
2023-04-23T02:37:34.010Z,528.00
2023-04-23T02:38:34.134Z,526.00
2023-04-23T02:39:34.075Z,524.00
2023-04-23T02:40:34.043Z,521.00
2023-04-23T02:41:34.060Z,522.00
2023-04-23T02:42:34.037Z,521.00
2023-04-23T02:43:34.094Z,520.00
2023-04-23T02:44:34.030Z,520.00
2023-04-23T02:45:34.037Z,521.00
2023-04-23T02:46:34.080Z,522.00
2023-04-23T02:47:34.049Z,524.00
2023-04-23T02:48:34.213Z,527.00
2023-04-23T02:49:34.036Z,528.00
2023-04-23T02:50:34.087Z,528.00
2023-04-23T02:51:34.133Z,529.00
2023-04-23T02:52:34.210Z,529.00
2023-04-23T02:53:34.141Z,529.00
2023-04-23T02:54:34.131Z,529.00
2023-04-23T02:55:34.106Z,532.00
2023-04-23T02:56:34.111Z,530.00
2023-04-23T02:57:34.088Z,531.00
2023-04-23T02:58:34.493Z,531.00
2023-04-23T02:59:34.130Z,532.00
2023-04-23T03:00:34.113Z,531.00
2023-04-23T03:01:34.093Z,529.00
2023-04-23T03:02:34.166Z,530.00
2023-04-23T03:03:34.266Z,529.00
2023-04-23T03:04:34.136Z,530.00
2023-04-23T03:05:34.217Z,531.00
2023-04-23T03:06:34.235Z,536.00
2023-04-23T03:07:34.282Z,535.00
2023-04-23T03:08:34.321Z,536.00
2023-04-23T03:09:34.364Z,539.00
2023-04-23T03:10:34.412Z,542.00
2023-04-23T03:11:34.498Z,538.00
2023-04-23T03:12:34.474Z,538.00
2023-04-23T03:13:34.488Z,536.00
2023-04-23T03:14:34.479Z,536.00
2023-04-23T03:15:34.446Z,535.00
2023-04-23T03:16:34.495Z,533.00
2023-04-23T03:17:34.595Z,533.00
2023-04-23T03:18:34.427Z,533.00
2023-04-23T03:19:34.430Z,534.00
2023-04-23T03:20:34.404Z,536.00
2023-04-23T03:21:34.411Z,537.00
2023-04-23T03:22:34.397Z,535.00
2023-04-23T03:23:34.442Z,532.00
2023-04-23T03:24:34.542Z,535.00
2023-04-23T03:25:34.523Z,531.00
2023-04-23T03:26:34.512Z,530.00
2023-04-23T03:27:34.476Z,531.00
2023-04-23T03:28:34.494Z,532.00
2023-04-23T03:29:34.469Z,533.00
2023-04-23T03:30:34.532Z,537.00
2023-04-23T03:31:34.465Z,540.00
2023-04-23T03:32:34.488Z,540.00
2023-04-23T03:33:34.466Z,541.00
2023-04-23T03:34:34.449Z,541.00
2023-04-23T03:35:34.490Z,539.00
2023-04-23T03:36:34.534Z,541.00
2023-04-23T03:37:34.590Z,539.00
2023-04-23T03:38:34.651Z,538.00
2023-04-23T03:39:34.632Z,538.00
2023-04-23T03:40:34.607Z,537.00
2023-04-23T03:41:34.620Z,533.00
2023-04-23T03:42:34.631Z,531.00
2023-04-23T03:43:34.644Z,530.00
2023-04-23T03:44:34.585Z,533.00
2023-04-23T03:45:34.594Z,536.00
2023-04-23T03:46:34.643Z,536.00
2023-04-23T03:47:34.580Z,534.00
2023-04-23T03:48:34.574Z,534.00
2023-04-23T03:49:34.555Z,531.00
2023-04-23T03:50:34.620Z,534.00
2023-04-23T03:51:34.670Z,532.00
2023-04-23T03:52:34.701Z,533.00
2023-04-23T03:53:34.787Z,534.00
2023-04-23T03:54:34.824Z,534.00
2023-04-23T03:55:34.890Z,532.00
2023-04-23T03:56:34.986Z,531.00
2023-04-23T03:57:34.981Z,532.00
2023-04-23T03:58:35.063Z,532.00
2023-04-23T03:59:35.131Z,532.00
2023-04-23T04:00:35.149Z,532.00
2023-04-23T04:01:35.175Z,533.00
2023-04-23T04:02:35.388Z,535.00
2023-04-23T04:03:35.385Z,535.00
2023-04-23T04:04:35.490Z,536.00
2023-04-23T04:05:35.496Z,532.00
2023-04-23T04:06:35.464Z,534.00
2023-04-23T04:07:35.492Z,536.00
2023-04-23T04:08:35.551Z,532.00
2023-04-23T04:09:35.647Z,527.00
2023-04-23T04:10:35.708Z,528.00
2023-04-23T04:11:35.713Z,528.00
2023-04-23T04:12:35.742Z,526.00
2023-04-23T04:13:35.844Z,526.00
2023-04-23T04:14:35.923Z,528.00
2023-04-23T04:15:35.922Z,526.00
2023-04-23T04:16:36.111Z,524.00
2023-04-23T04:17:36.097Z,525.00
2023-04-23T04:18:36.143Z,528.00
2023-04-23T04:19:36.197Z,530.00
2023-04-23T04:20:36.226Z,533.00
2023-04-23T04:21:37.041Z,535.00
2023-04-23T04:22:36.343Z,533.00
2023-04-23T04:23:36.414Z,532.00
2023-04-23T04:24:36.458Z,531.00
2023-04-23T04:25:36.558Z,532.00
2023-04-23T04:26:36.589Z,531.00
2023-04-23T04:27:36.641Z,534.00
2023-04-23T04:28:36.732Z,537.00
2023-04-23T04:29:36.753Z,539.00
2023-04-23T04:30:36.837Z,537.00
2023-04-23T04:31:36.889Z,538.00
2023-04-23T04:32:36.938Z,534.00
2023-04-23T04:33:36.984Z,532.00
2023-04-23T04:34:37.043Z,531.00
2023-04-23T04:35:37.086Z,529.00
2023-04-23T04:36:37.166Z,532.00
2023-04-23T04:37:37.221Z,535.00
2023-04-23T04:38:37.291Z,535.00
2023-04-23T04:39:37.384Z,537.00
2023-04-23T04:40:37.372Z,538.00
2023-04-23T04:41:37.441Z,540.00
2023-04-23T04:42:37.524Z,537.00
2023-04-23T04:43:37.584Z,537.00
2023-04-23T04:44:37.904Z,537.00
2023-04-23T04:45:37.668Z,534.00
2023-04-23T04:46:37.815Z,532.00
2023-04-23T04:47:37.815Z,531.00
2023-04-23T04:48:37.825Z,530.00
2023-04-23T04:49:37.877Z,531.00
2023-04-23T04:50:37.954Z,529.00
2023-04-23T04:51:38.339Z,531.00
2023-04-23T04:52:38.035Z,534.00
2023-04-23T04:53:38.135Z,532.00
2023-04-23T04:54:38.140Z,532.00
2023-04-23T04:55:38.214Z,529.00
2023-04-23T04:56:38.278Z,527.00
2023-04-23T04:57:38.251Z,525.00
2023-04-23T04:58:38.244Z,528.00
2023-04-23T04:59:38.271Z,529.00
2023-04-23T05:00:38.236Z,529.00
2023-04-23T05:01:38.258Z,532.00
2023-04-23T05:02:38.305Z,533.00
2023-04-23T05:03:38.505Z,532.00
2023-04-23T05:04:38.190Z,530.00
2023-04-23T05:05:38.238Z,530.00
2023-04-23T05:06:38.247Z,527.00
2023-04-23T05:07:38.318Z,528.00
2023-04-23T05:08:38.369Z,528.00
2023-04-23T05:09:38.459Z,530.00
2023-04-23T05:10:38.493Z,530.00
2023-04-23T05:11:38.602Z,527.00
2023-04-23T05:12:38.599Z,527.00
2023-04-23T05:13:38.659Z,525.00
2023-04-23T05:14:38.788Z,526.00
2023-04-23T05:15:38.757Z,531.00
2023-04-23T05:16:38.787Z,532.00
2023-04-23T05:17:38.723Z,533.00
2023-04-23T05:18:38.724Z,534.00
2023-04-23T05:19:38.713Z,534.00
2023-04-23T05:20:38.694Z,533.00
2023-04-23T05:21:38.676Z,534.00
2023-04-23T05:22:38.667Z,536.00
2023-04-23T05:23:38.744Z,539.00
2023-04-23T05:24:38.990Z,538.00
2023-04-23T05:25:39.201Z,538.00
2023-04-23T05:26:38.649Z,537.00
2023-04-23T05:27:38.654Z,535.00
2023-04-23T05:28:38.641Z,533.00
2023-04-23T05:29:38.993Z,530.00
2023-04-23T05:30:39.705Z,529.00
2023-04-23T05:31:38.805Z,530.00
2023-04-23T05:32:38.869Z,527.00
2023-04-23T05:33:49.250Z,529.00
2023-04-23T05:34:40.192Z,531.00
2023-04-23T05:35:38.868Z,530.00
2023-04-23T05:36:38.898Z,529.00
2023-04-23T05:37:38.856Z,527.00
2023-04-23T05:38:38.871Z,527.00
2023-04-23T05:39:38.850Z,527.00
2023-04-23T05:40:38.948Z,528.00
2023-04-23T05:41:38.829Z,527.00
2023-04-23T05:42:38.883Z,524.00
2023-04-23T05:43:38.938Z,527.00
2023-04-23T05:44:39.179Z,530.00
2023-04-23T05:45:39.057Z,528.00
2023-04-23T05:46:39.091Z,529.00
2023-04-23T05:47:39.161Z,531.00
2023-04-23T05:48:39.217Z,531.00
2023-04-23T05:49:39.312Z,530.00
2023-04-23T05:50:39.342Z,529.00
2023-04-23T05:51:39.428Z,528.00
2023-04-23T05:52:39.531Z,527.00
2023-04-23T05:53:39.545Z,526.00
2023-04-23T05:54:39.749Z,528.00
2023-04-23T05:55:39.627Z,529.00
2023-04-23T05:56:39.705Z,527.00
2023-04-23T05:57:39.775Z,528.00
2023-04-23T05:58:39.825Z,527.00
2023-04-23T05:59:39.893Z,525.00
2023-04-23T06:00:40.045Z,526.00
2023-04-23T06:01:40.027Z,526.00
2023-04-23T06:02:40.178Z,526.00
2023-04-23T06:03:40.368Z,525.00
2023-04-23T06:04:40.538Z,528.00
2023-04-23T06:05:40.306Z,530.00
2023-04-23T06:06:40.364Z,530.00
2023-04-23T06:07:40.381Z,528.00
2023-04-23T06:08:40.476Z,530.00
2023-04-23T06:09:40.521Z,531.00
2023-04-23T06:10:40.582Z,533.00
2023-04-23T06:11:40.699Z,532.00
2023-04-23T06:12:40.715Z,530.00
2023-04-23T06:13:43.487Z,530.00
2023-04-23T06:14:40.920Z,530.00
2023-04-23T06:15:40.791Z,531.00
2023-04-23T06:16:40.755Z,532.00
2023-04-23T06:17:40.811Z,531.00
2023-04-23T06:18:40.742Z,531.00
2023-04-23T06:19:40.777Z,533.00
2023-04-23T06:20:40.728Z,534.00
2023-04-23T06:21:40.734Z,532.00
2023-04-23T06:22:40.712Z,529.00
2023-04-23T06:23:40.734Z,531.00
2023-04-23T06:24:41.021Z,530.00
2023-04-23T06:25:40.689Z,532.00
2023-04-23T06:26:40.692Z,530.00
2023-04-23T06:27:40.708Z,530.00
2023-04-23T06:28:40.663Z,530.00
2023-04-23T06:29:40.648Z,531.00
2023-04-23T06:30:40.663Z,533.00
2023-04-23T06:31:40.694Z,537.00
2023-04-23T06:32:40.666Z,539.00
2023-04-23T06:33:40.638Z,542.00
2023-04-23T06:34:53.254Z,539.00
2023-04-23T06:35:41.646Z,539.00
2023-04-23T06:36:40.597Z,537.00
2023-04-23T06:37:40.621Z,537.00
2023-04-23T06:38:40.606Z,534.00
2023-04-23T06:39:40.606Z,533.00
2023-04-23T06:40:40.582Z,532.00
2023-04-23T06:41:40.567Z,529.00
2023-04-23T06:42:40.587Z,527.00
2023-04-23T06:43:40.590Z,526.00
2023-04-23T06:44:40.703Z,525.00
2023-04-23T06:45:40.559Z,528.00
2023-04-23T06:46:40.567Z,531.00
2023-04-23T06:47:40.551Z,534.00
2023-04-23T06:48:40.535Z,536.00
2023-04-23T06:49:40.515Z,536.00
2023-04-23T06:50:40.579Z,537.00
2023-04-23T06:51:40.485Z,536.00
2023-04-23T06:52:40.520Z,538.00
2023-04-23T06:53:40.558Z,535.00
2023-04-23T06:54:40.890Z,530.00
2023-04-23T06:55:40.996Z,528.00
2023-04-23T06:56:41.880Z,528.00
2023-04-23T06:57:40.743Z,530.00
2023-04-23T06:58:40.839Z,532.00
2023-04-23T06:59:41.551Z,532.00
2023-04-23T07:00:40.978Z,531.00
2023-04-23T07:01:40.972Z,534.00
2023-04-23T07:02:41.058Z,532.00
2023-04-23T07:03:43.029Z,533.00
2023-04-23T07:04:41.477Z,537.00
2023-04-23T07:05:41.079Z,536.00
2023-04-23T07:06:41.083Z,533.00
2023-04-23T07:07:41.028Z,534.00
2023-04-23T07:08:41.043Z,530.00
2023-04-23T07:09:41.050Z,524.00
2023-04-23T07:10:41.055Z,523.00
2023-04-23T07:11:41.013Z,522.00
2023-04-23T07:12:41.074Z,520.00
2023-04-23T07:13:41.014Z,520.00
2023-04-23T07:14:41.342Z,521.00
2023-04-23T07:15:41.026Z,521.00
2023-04-23T07:16:41.027Z,523.00
2023-04-23T07:17:40.987Z,522.00
2023-04-23T07:18:41.005Z,523.00
2023-04-23T07:19:40.995Z,524.00
2023-04-23T07:20:40.970Z,524.00
2023-04-23T07:21:40.993Z,524.00
2023-04-23T07:22:41.583Z,526.00
2023-04-23T07:23:40.961Z,525.00
2023-04-23T07:24:41.350Z,526.00
2023-04-23T07:25:40.929Z,527.00
2023-04-23T07:26:40.968Z,531.00
2023-04-23T07:27:40.925Z,532.00
2023-04-23T07:28:40.929Z,533.00
2023-04-23T07:29:40.934Z,532.00
2023-04-23T07:30:40.934Z,533.00
2023-04-23T07:31:41.081Z,534.00
2023-04-23T07:32:40.970Z,533.00
2023-04-23T07:33:40.894Z,534.00
2023-04-23T07:34:41.114Z,532.00
2023-04-23T07:35:40.910Z,534.00
2023-04-23T07:36:40.939Z,536.00
2023-04-23T07:37:41.007Z,535.00
2023-04-23T07:38:41.097Z,532.00
2023-04-23T07:39:43.812Z,529.00
2023-04-23T07:40:41.135Z,529.00
2023-04-23T07:41:41.137Z,528.00
2023-04-23T07:42:41.117Z,529.00
2023-04-23T07:43:41.134Z,527.00
2023-04-23T07:44:41.102Z,527.00
2023-04-23T07:45:41.140Z,527.00
2023-04-23T07:46:41.078Z,529.00
2023-04-23T07:47:41.121Z,528.00
2023-04-23T07:48:42.121Z,530.00
2023-04-23T07:49:41.360Z,532.00
2023-04-23T07:50:41.058Z,533.00
2023-04-23T07:51:41.059Z,532.00
2023-04-23T07:52:41.097Z,530.00
2023-04-23T07:53:41.059Z,526.00
2023-04-23T07:54:41.027Z,527.00
2023-04-23T07:55:41.039Z,526.00
2023-04-23T07:56:43.080Z,524.00
2023-04-23T07:57:41.021Z,523.00
2023-04-23T07:58:41.102Z,524.00
2023-04-23T07:59:41.540Z,524.00
2023-04-23T08:00:41.219Z,524.00
2023-04-23T08:01:41.299Z,524.00
2023-04-23T08:02:41.486Z,525.00
2023-04-23T08:03:41.549Z,523.00
2023-04-23T08:04:41.620Z,524.00
2023-04-23T08:05:41.553Z,525.00
2023-04-23T08:06:41.554Z,526.00
2023-04-23T08:07:41.605Z,528.00
2023-04-23T08:08:41.669Z,528.00
2023-04-23T08:09:42.457Z,527.00
2023-04-23T08:10:41.743Z,528.00
2023-04-23T08:11:41.799Z,525.00
2023-04-23T08:12:41.870Z,525.00
2023-04-23T08:13:41.914Z,522.00
2023-04-23T08:14:42.009Z,520.00
2023-04-23T08:15:42.026Z,522.00
2023-04-23T08:16:42.070Z,521.00
2023-04-23T08:17:42.225Z,518.00
2023-04-23T08:18:42.202Z,516.00
2023-04-23T08:19:42.607Z,516.00
2023-04-23T08:20:42.358Z,516.00
2023-04-23T08:21:42.370Z,515.00
2023-04-23T08:22:42.398Z,517.00
2023-04-23T08:23:42.434Z,519.00
2023-04-23T08:24:42.512Z,519.00
2023-04-23T08:25:42.548Z,519.00
2023-04-23T08:26:42.614Z,521.00
2023-04-23T08:27:42.709Z,522.00
2023-04-23T08:28:42.733Z,523.00
2023-04-23T08:29:43.010Z,524.00
2023-04-23T08:30:42.954Z,524.00
2023-04-23T08:31:43.908Z,523.00
2023-04-23T08:32:42.977Z,522.00
2023-04-23T08:33:43.064Z,521.00
2023-04-23T08:34:43.075Z,521.00
2023-04-23T08:35:43.116Z,520.00
2023-04-23T08:36:43.201Z,522.00
2023-04-23T08:37:43.199Z,523.00
2023-04-23T08:38:43.262Z,524.00
2023-04-23T08:39:43.451Z,526.00
2023-04-23T08:40:43.323Z,525.00
2023-04-23T08:41:43.374Z,523.00
2023-04-23T08:42:43.480Z,525.00
2023-04-23T08:43:43.500Z,524.00
2023-04-23T08:44:43.548Z,527.00
2023-04-23T08:45:43.593Z,527.00
2023-04-23T08:46:43.642Z,523.00
2023-04-23T08:47:43.758Z,521.00
2023-04-23T08:48:43.765Z,519.00
2023-04-23T08:49:43.970Z,520.00
2023-04-23T08:50:43.894Z,518.00
2023-04-23T08:51:43.930Z,518.00
2023-04-23T08:52:43.989Z,516.00
2023-04-23T08:53:44.063Z,516.00
2023-04-23T08:54:44.116Z,516.00
2023-04-23T08:55:44.172Z,515.00
2023-04-23T08:56:44.188Z,516.00
2023-04-23T08:57:44.151Z,520.00
2023-04-23T08:58:44.167Z,518.00
2023-04-23T08:59:44.363Z,519.00
2023-04-23T09:00:44.223Z,520.00
2023-04-23T09:01:44.273Z,520.00
2023-04-23T09:02:44.350Z,520.00
2023-04-23T09:03:44.193Z,519.00
2023-04-23T09:04:44.150Z,517.00
2023-04-23T09:05:44.237Z,514.00
2023-04-23T09:06:44.292Z,515.00
2023-04-23T09:07:44.352Z,516.00
2023-04-23T09:08:44.411Z,515.00
2023-04-23T09:09:44.759Z,514.00
2023-04-23T09:10:44.513Z,515.00
2023-04-23T09:11:44.568Z,515.00
2023-04-23T09:12:44.621Z,515.00
2023-04-23T09:13:44.687Z,512.00
2023-04-23T09:14:45.055Z,513.00
2023-04-23T09:15:44.769Z,515.00
2023-04-23T09:16:44.848Z,516.00
2023-04-23T09:17:44.916Z,516.00
2023-04-23T09:18:44.980Z,517.00
2023-04-23T09:19:45.009Z,517.00
2023-04-23T09:20:45.049Z,516.00
2023-04-23T09:21:45.072Z,514.00
2023-04-23T09:22:47.065Z,514.00
2023-04-23T09:23:45.214Z,512.00
2023-04-23T09:24:45.327Z,514.00
2023-04-23T09:25:45.323Z,513.00
2023-04-23T09:26:45.392Z,515.00
2023-04-23T09:27:45.483Z,517.00
2023-04-23T09:28:45.480Z,517.00
2023-04-23T09:29:45.447Z,517.00
2023-04-23T09:30:45.439Z,516.00
2023-04-23T09:31:45.493Z,519.00
2023-04-23T09:32:45.465Z,519.00
2023-04-23T09:33:45.494Z,517.00
2023-04-23T09:34:45.444Z,517.00
2023-04-23T09:35:45.412Z,516.00
2023-04-23T09:36:45.438Z,514.00
2023-04-23T09:37:45.513Z,516.00
2023-04-23T09:38:45.597Z,517.00
2023-04-23T09:39:45.646Z,517.00
2023-04-23T09:40:45.638Z,517.00
2023-04-23T09:41:45.608Z,517.00
2023-04-23T09:42:45.600Z,518.00
2023-04-23T09:43:45.693Z,520.00
2023-04-23T09:44:45.578Z,521.00
2023-04-23T09:45:45.612Z,519.00
2023-04-23T09:46:45.551Z,517.00
2023-04-23T09:47:45.616Z,515.00
2023-04-23T09:48:45.604Z,515.00
2023-04-23T09:49:45.655Z,516.00
2023-04-23T09:50:45.710Z,519.00
2023-04-23T09:51:45.789Z,521.00
2023-04-23T09:52:45.836Z,522.00
2023-04-23T09:53:45.900Z,526.00
2023-04-23T09:54:45.971Z,521.00
2023-04-23T09:55:46.027Z,519.00
2023-04-23T09:56:46.069Z,518.00
2023-04-23T09:57:46.152Z,519.00
2023-04-23T09:58:46.261Z,518.00
2023-04-23T09:59:50.179Z,518.00
2023-04-23T10:00:47.272Z,519.00
2023-04-23T10:01:46.370Z,520.00
2023-04-23T10:02:46.464Z,520.00
2023-04-23T10:03:46.384Z,521.00
2023-04-23T10:05:10.045Z,522.00
2023-04-23T10:06:05.202Z,526.00
2023-04-23T10:08:17.758Z,522.00
2023-04-23T10:10:50.252Z,526.00
2023-04-23T10:11:43.097Z,534.00
2023-04-23T10:12:54.282Z,525.00
2023-04-23T10:13:43.130Z,519.00
2023-04-23T10:14:43.118Z,517.00
2023-04-23T10:15:43.153Z,515.00
2023-04-23T10:16:49.133Z,514.00
2023-04-23T10:17:44.104Z,513.00
2023-04-23T10:18:43.118Z,515.00
2023-04-23T10:19:43.589Z,515.00
2023-04-23T10:20:43.044Z,516.00
2023-04-23T10:21:53.481Z,517.00
2023-04-23T10:22:44.057Z,515.00
2023-04-23T10:23:43.050Z,514.00
2023-04-23T10:24:43.136Z,513.00
2023-04-23T10:25:43.039Z,511.00
2023-04-23T10:26:43.073Z,510.00
2023-04-23T10:27:52.140Z,509.00
2023-04-23T10:28:44.008Z,510.00
2023-04-23T10:29:43.248Z,511.00
2023-04-23T10:30:42.994Z,510.00
2023-04-23T10:31:43.027Z,510.00
2023-04-23T10:32:43.105Z,511.00
2023-04-23T10:33:56.105Z,512.00
2023-04-23T10:34:43.952Z,512.00
2023-04-23T10:35:42.945Z,509.00
2023-04-23T10:36:42.947Z,508.00
2023-04-23T10:37:43.019Z,510.00
2023-04-23T10:38:56.913Z,510.00
2023-04-23T10:39:43.924Z,509.00
2023-04-23T10:40:43.014Z,509.00
2023-04-23T10:41:42.907Z,508.00
2023-04-23T10:42:42.926Z,505.00
2023-04-23T10:43:42.928Z,506.00
2023-04-23T10:44:56.740Z,506.00
2023-04-23T10:45:43.898Z,506.00
2023-04-23T10:46:42.962Z,509.00
2023-04-23T10:47:42.929Z,508.00
2023-04-23T10:48:42.904Z,506.00
2023-04-23T10:49:43.085Z,505.00
2023-04-23T10:50:58.377Z,504.00
2023-04-23T10:52:06.342Z,502.00
2023-04-23T10:52:43.837Z,503.00
2023-04-23T10:53:42.852Z,505.00
2023-04-23T10:54:42.838Z,503.00
2023-04-23T10:55:42.835Z,501.00
2023-04-23T10:56:42.813Z,502.00
2023-04-23T10:57:42.798Z,502.00
2023-04-23T10:58:42.852Z,501.00
2023-04-23T10:59:43.393Z,502.00
2023-04-23T11:00:42.802Z,502.00
2023-04-23T11:01:42.840Z,502.00
2023-04-23T11:02:42.872Z,504.00
2023-04-23T11:03:44.908Z,502.00
2023-04-23T11:04:42.978Z,502.00
2023-04-23T11:05:42.960Z,504.00
2023-04-23T11:06:43.033Z,503.00
2023-04-23T11:07:43.083Z,502.00
2023-04-23T11:08:43.133Z,505.00
2023-04-23T11:09:43.483Z,510.00
2023-04-23T11:10:43.241Z,511.00
2023-04-23T11:11:43.308Z,512.00
2023-04-23T11:12:43.416Z,512.00
2023-04-23T11:13:43.400Z,511.00
2023-04-23T11:14:43.389Z,510.00
2023-04-23T11:15:43.354Z,511.00
2023-04-23T11:16:43.523Z,511.00
2023-04-23T11:17:43.358Z,510.00
2023-04-23T11:18:43.348Z,509.00
2023-04-23T11:19:43.563Z,508.00
2023-04-23T11:20:43.323Z,508.00
2023-04-23T11:21:43.306Z,509.00
2023-04-23T11:22:43.313Z,509.00
2023-04-23T11:23:43.311Z,513.00
2023-04-23T11:24:43.479Z,514.00
2023-04-23T11:25:43.287Z,512.00
2023-04-23T11:26:43.267Z,512.00
2023-04-23T11:27:43.319Z,512.00
2023-04-23T11:28:43.362Z,515.00
2023-04-23T11:29:43.625Z,518.00
2023-04-23T11:30:44.395Z,519.00
2023-04-23T11:32:00.336Z,519.00
2023-04-23T11:32:44.644Z,521.00
2023-04-23T11:33:43.522Z,520.00
2023-04-23T11:34:43.557Z,523.00
2023-04-23T11:35:43.520Z,525.00
2023-04-23T11:36:43.492Z,523.00
2023-04-23T11:37:43.500Z,524.00
2023-04-23T11:38:43.527Z,521.00
2023-04-23T11:39:43.686Z,520.00
2023-04-23T11:40:43.570Z,519.00
2023-04-23T11:41:43.472Z,518.00
2023-04-23T11:42:43.459Z,518.00
2023-04-23T11:43:43.529Z,519.00
2023-04-23T11:44:43.571Z,519.00
2023-04-23T11:45:43.628Z,520.00
2023-04-23T11:46:43.697Z,518.00
2023-04-23T11:47:43.767Z,518.00
2023-04-23T11:48:43.737Z,518.00
2023-04-23T11:49:44.647Z,520.00
2023-04-23T11:50:43.869Z,520.00
2023-04-23T11:51:43.892Z,520.00
2023-04-23T11:52:43.928Z,520.00
2023-04-23T11:53:43.970Z,521.00
2023-04-23T11:54:44.016Z,521.00
2023-04-23T11:55:44.256Z,525.00
2023-04-23T11:56:44.212Z,522.00
2023-04-23T11:57:44.205Z,521.00
2023-04-23T11:58:44.229Z,521.00
2023-04-23T11:59:44.554Z,517.00
2023-04-23T12:00:44.298Z,515.00
2023-04-23T12:01:44.364Z,519.00
2023-04-23T12:02:44.430Z,522.00
2023-04-23T12:03:44.550Z,521.00
2023-04-23T12:04:44.495Z,522.00
2023-04-23T12:05:44.714Z,522.00
2023-04-23T12:06:44.588Z,524.00
2023-04-23T12:07:44.627Z,524.00
2023-04-23T12:08:44.747Z,523.00
2023-04-23T12:09:44.705Z,522.00
2023-04-23T12:10:44.750Z,518.00
2023-04-23T12:11:44.897Z,517.00
2023-04-23T12:12:44.862Z,517.00
2023-04-23T12:13:44.907Z,516.00
2023-04-23T12:14:44.928Z,513.00
2023-04-23T12:15:45.079Z,514.00
2023-04-23T12:16:45.038Z,514.00
2023-04-23T12:17:45.149Z,513.00
2023-04-23T12:18:45.126Z,515.00
2023-04-23T12:19:45.188Z,514.00
2023-04-23T12:20:45.213Z,514.00
2023-04-23T12:21:45.315Z,516.00
2023-04-23T12:22:45.315Z,514.00
2023-04-23T12:23:45.543Z,512.00
2023-04-23T12:24:45.329Z,511.00
2023-04-23T12:25:45.256Z,510.00
2023-04-23T12:26:45.274Z,506.00
2023-04-23T12:27:45.267Z,509.00
2023-04-23T12:28:45.246Z,508.00
2023-04-23T12:29:45.272Z,508.00
2023-04-23T12:30:45.254Z,509.00
2023-04-23T12:31:45.251Z,512.00
2023-04-23T12:32:45.274Z,516.00